Time;durP1;ratioP1;P1;durP2;ratioP2;P2;SDS_P1;SDS_P2;PMS_P1;PMS_P2;Temp;Humidity;BMP_temperature;BMP_pressure;BME280_temperature;BME280_humidity;BME280_pressure;Samples;Min_cycle;Max_cycle;Signal;HPM_P1;HPM_P2
2022/08/08 00:02:27;;;;;;;3.00;1.83;;;;;;;;;;5051416;28;20928;-81
2022/08/08 00:05:06;;;;;;;2.03;1.70;;;;;;;;;;5054260;28;20386;-81
2022/08/08 00:07:36;;;;;;;3.22;1.80;;;;;;;;;;5054882;28;20490;-81
2022/08/08 00:10:05;;;;;;;3.10;2.03;;;;;;;;;;5054819;28;20811;-81
2022/08/08 00:12:58;;;;;;;1.98;1.80;;;;;;;;;;5054862;28;20402;-81
2022/08/08 00:15:27;;;;;;;2.05;1.83;;;;;;;;;;5031698;28;20469;-82
2022/08/08 00:17:53;;;;;;;2.03;1.92;;;;;;;;;;5054819;28;20390;-81
2022/08/08 00:20:39;;;;;;;2.00;1.90;;;;;;;;;;5037023;28;20374;-81
2022/08/08 00:23:07;;;;;;;2.28;2.08;;;;;;;;;;5044117;28;20414;-81
2022/08/08 00:25:41;;;;;;;2.30;2.10;;;;;;;;;;5054530;28;20381;-81
2022/08/08 00:28:08;;;;;;;2.60;2.00;;;;;;;;;;5054265;28;20393;-81
2022/08/08 00:30:40;;;;;;;2.00;1.90;;;;;;;;;;5054514;28;20806;-81
2022/08/08 00:33:06;;;;;;;2.10;2.00;;;;;;;;;;5054737;28;20381;-81
2022/08/08 00:35:51;;;;;;;3.42;1.90;;;;;;;;;;5036638;28;20400;-81
2022/08/08 00:38:26;;;;;;;2.00;1.80;;;;;;;;;;5054247;28;20432;-81
2022/08/08 00:41:25;;;;;;;2.10;1.90;;;;;;;;;;5036355;28;20728;-81
2022/08/08 00:44:09;;;;;;;1.90;1.80;;;;;;;;;;5021150;28;20905;-81
2022/08/08 00:46:55;;;;;;;1.87;1.77;;;;;;;;;;5054295;28;20409;-81
2022/08/08 00:49:39;;;;;;;2.13;1.73;;;;;;;;;;5054095;28;20466;-81
2022/08/08 00:52:14;;;;;;;1.87;1.77;;;;;;;;;;5054360;28;20377;-82
2022/08/08 00:54:46;;;;;;;1.70;1.60;;;;;;;;;;5054030;28;20373;-81
2022/08/08 00:57:39;;;;;;;2.40;2.20;;;;;;;;;;5053918;28;20395;-81
2022/08/08 01:00:25;;;;;;;2.10;2.00;;;;;;;;;;5053912;28;20373;-81
2022/08/08 01:03:10;;;;;;;1.85;1.75;;;;;;;;;;5053655;28;20406;-81
2022/08/08 01:05:54;;;;;;;2.60;2.03;;;;;;;;;;5053458;28;20419;-81
2022/08/08 01:08:23;;;;;;;2.08;1.92;;;;;;;;;;5053610;28;20457;-81
2022/08/08 01:10:55;;;;;;;1.80;1.70;;;;;;;;;;5054063;28;20412;-81
2022/08/08 01:13:39;;;;;;;2.20;1.75;;;;;;;;;;5035744;28;20820;-81
2022/08/08 01:16:14;;;;;;;2.17;2.05;;;;;;;;;;5052493;28;20381;-81
2022/08/08 01:18:55;;;;;;;2.25;1.88;;;;;;;;;;5035522;28;20886;-81
2022/08/08 01:21:21;;;;;;;4.10;2.03;;;;;;;;;;5035617;28;20747;-81
2022/08/08 01:24:06;;;;;;;2.20;2.00;;;;;;;;;;5053454;28;20377;-81
2022/08/08 01:26:51;;;;;;;2.00;1.80;;;;;;;;;;5053210;28;20869;-81
2022/08/08 01:29:17;;;;;;;2.60;2.10;;;;;;;;;;5053284;28;20397;-81
2022/08/08 01:31:43;;;;;;;2.20;2.10;;;;;;;;;;5053294;28;20389;-81
2022/08/08 01:34:11;;;;;;;2.60;2.13;;;;;;;;;;5053431;28;20413;-81
2022/08/08 01:36:40;;;;;;;2.42;2.03;;;;;;;;;;5053108;28;20374;-81
2022/08/08 01:39:16;;;;;;;2.25;2.00;;;;;;;;;;5034976;28;20849;-81
2022/08/08 01:41:54;;;;;;;2.43;1.97;;;;;;;;;;5035042;28;20374;-81
2022/08/08 01:44:26;;;;;;;2.00;1.90;;;;;;;;;;5052685;28;20396;-81
2022/08/08 01:47:11;;;;;;;3.13;2.07;;;;;;;;;;5053005;28;20378;-81
2022/08/08 01:50:06;;;;;;;3.43;2.00;;;;;;;;;;5052924;28;20400;-81
2022/08/08 01:52:51;;;;;;;1.80;1.70;;;;;;;;;;5039745;28;20459;-81
2022/08/08 01:55:20;;;;;;;1.90;1.80;;;;;;;;;;5053018;28;20396;-81
2022/08/08 01:58:03;;;;;;;1.90;1.80;;;;;;;;;;5052722;28;20439;-81
2022/08/08 02:00:38;;;;;;;2.33;2.03;;;;;;;;;;5053002;28;20855;-82
2022/08/08 02:03:16;;;;;;;2.35;2.03;;;;;;;;;;5052663;28;20381;-81
2022/08/08 02:05:51;;;;;;;2.20;2.10;;;;;;;;;;5052710;28;20385;-81
2022/08/08 02:08:19;;;;;;;2.00;1.75;;;;;;;;;;5049034;28;20405;-81
2022/08/08 02:10:53;;;;;;;2.45;2.25;;;;;;;;;;5043195;28;20439;-81
2022/08/08 02:13:19;;;;;;;3.70;1.88;;;;;;;;;;5048150;28;20401;-81
2022/08/08 02:16:01;;;;;;;2.40;2.05;;;;;;;;;;5032955;28;20393;-81
2022/08/08 02:18:40;;;;;;;2.15;2.03;;;;;;;;;;5050971;28;20418;-81
2022/08/08 02:24:05;;;;;;;1.98;1.88;;;;;;;;;;5052478;28;20377;-81
2022/08/08 02:26:46;;;;;;;2.28;2.13;;;;;;;;;;5051239;28;20401;-81
2022/08/08 02:29:23;;;;;;;2.00;1.90;;;;;;;;;;5052273;28;20381;-81
2022/08/08 02:31:55;;;;;;;3.50;2.05;;;;;;;;;;5052264;28;20468;-81
2022/08/08 02:34:42;;;;;;;2.22;2.03;;;;;;;;;;5052169;28;20417;-81
2022/08/08 02:37:13;;;;;;;2.13;1.95;;;;;;;;;;5021280;28;20382;-81
2022/08/08 02:39:55;;;;;;;2.40;2.20;;;;;;;;;;5052200;28;20381;-81
2022/08/08 02:42:30;;;;;;;2.15;2.05;;;;;;;;;;5052029;28;20388;-81
2022/08/08 02:45:12;;;;;;;2.30;2.10;;;;;;;;;;5052134;28;20370;-81
2022/08/08 02:47:44;;;;;;;2.50;2.30;;;;;;;;;;5052039;28;20374;-81
2022/08/08 02:50:28;;;;;;;2.30;1.83;;;;;;;;;;5052055;28;20716;-81
2022/08/08 02:53:00;;;;;;;2.20;2.10;;;;;;;;;;5051857;28;20401;-81
2022/08/08 02:55:46;;;;;;;2.28;2.08;;;;;;;;;;5034402;28;20447;-81
2022/08/08 02:58:21;;;;;;;2.03;1.92;;;;;;;;;;5051893;28;20464;-81
2022/08/08 03:01:05;;;;;;;2.17;1.90;;;;;;;;;;5034330;28;20412;-81
2022/08/08 03:03:51;;;;;;;1.98;1.88;;;;;;;;;;5051811;28;20378;-81
2022/08/08 03:06:17;;;;;;;2.10;2.00;;;;;;;;;;5051506;28;20468;-81
2022/08/08 03:09:03;;;;;;;2.17;2.00;;;;;;;;;;5051974;28;20950;-81
2022/08/08 03:11:38;;;;;;;2.33;2.13;;;;;;;;;;5051765;28;20384;-81
2022/08/08 03:14:19;;;;;;;2.30;2.10;;;;;;;;;;5051748;28;20424;-81
2022/08/08 03:16:54;;;;;;;2.13;1.92;;;;;;;;;;5051726;28;20382;-81
2022/08/08 03:19:39;;;;;;;2.30;2.17;;;;;;;;;;5051778;28;20381;-81
2022/08/08 03:22:05;;;;;;;2.20;2.10;;;;;;;;;;5051677;28;20381;-81
2022/08/08 03:24:31;;;;;;;2.30;2.20;;;;;;;;;;5051759;28;20396;-81
2022/08/08 03:27:19;;;;;;;2.50;2.30;;;;;;;;;;5051388;28;20485;-81
2022/08/08 03:29:47;;;;;;;2.33;2.17;;;;;;;;;;5043541;28;20394;-81
2022/08/08 03:34:58;;;;;;;2.47;2.22;;;;;;;;;;5051772;28;20857;-81
2022/08/08 03:37:24;;;;;;;2.15;2.05;;;;;;;;;;5051277;28;20417;-81
2022/08/08 03:39:50;;;;;;;3.42;2.58;;;;;;;;;;5043968;28;20742;-81
2022/08/08 03:42:17;;;;;;;2.50;2.30;;;;;;;;;;5055429;28;20373;-81
2022/08/08 03:44:43;;;;;;;2.58;2.38;;;;;;;;;;5055360;28;20420;-81
2022/08/08 03:47:09;;;;;;;2.83;2.63;;;;;;;;;;5054839;28;20377;-81
2022/08/08 03:49:35;;;;;;;2.80;2.60;;;;;;;;;;5055266;28;20458;-81
2022/08/08 03:52:01;;;;;;;2.90;2.70;;;;;;;;;;5055277;28;20715;-81
2022/08/08 03:54:27;;;;;;;3.17;2.78;;;;;;;;;;5055108;28;20412;-81
2022/08/08 03:56:53;;;;;;;3.65;2.63;;;;;;;;;;5055071;28;20385;-81
2022/08/08 03:59:19;;;;;;;3.17;2.88;;;;;;;;;;5055255;28;20382;-81
2022/08/08 04:01:45;;;;;;;2.50;2.30;;;;;;;;;;5055008;28;20373;-81
2022/08/08 04:04:11;;;;;;;2.83;2.58;;;;;;;;;;5037153;28;20385;-81
2022/08/08 04:06:38;;;;;;;2.75;2.55;;;;;;;;;;5054843;28;20384;-81
2022/08/08 04:09:05;;;;;;;2.70;2.50;;;;;;;;;;5054948;28;20472;-81
2022/08/08 04:11:31;;;;;;;2.85;2.63;;;;;;;;;;5054805;28;20381;-81
2022/08/08 04:13:58;;;;;;;2.80;2.50;;;;;;;;;;5054829;28;20409;-81
2022/08/08 04:16:25;;;;;;;2.53;2.33;;;;;;;;;;5037108;28;20859;-81
2022/08/08 04:18:51;;;;;;;2.67;2.42;;;;;;;;;;5054663;28;20373;-81
2022/08/08 04:21:17;;;;;;;2.70;2.50;;;;;;;;;;5054745;28;20443;-82
2022/08/08 04:23:43;;;;;;;2.78;2.58;;;;;;;;;;5054621;28;20436;-81
2022/08/08 04:26:09;;;;;;;2.63;2.42;;;;;;;;;;5036602;28;20392;-82
2022/08/08 04:28:35;;;;;;;2.70;2.50;;;;;;;;;;5036431;28;20476;-81
2022/08/08 04:31:01;;;;;;;2.83;2.63;;;;;;;;;;5052943;28;20397;-81
2022/08/08 04:33:27;;;;;;;3.45;2.80;;;;;;;;;;5039380;28;20461;-81
2022/08/08 04:35:53;;;;;;;2.97;2.70;;;;;;;;;;5050836;28;20375;-81
2022/08/08 04:38:20;;;;;;;2.53;2.42;;;;;;;;;;5046594;28;20877;-81
2022/08/08 04:40:46;;;;;;;3.28;2.95;;;;;;;;;;5053008;28;20384;-81
2022/08/08 04:43:12;;;;;;;2.78;2.40;;;;;;;;;;5036395;28;20385;-81
2022/08/08 04:45:38;;;;;;;2.72;2.50;;;;;;;;;;5035406;28;20759;-81
2022/08/08 04:48:04;;;;;;;2.87;2.67;;;;;;;;;;5054032;28;20504;-81
2022/08/08 04:50:30;;;;;;;2.88;2.65;;;;;;;;;;5054380;28;20850;-81
2022/08/08 04:52:56;;;;;;;2.80;2.60;;;;;;;;;;5053993;28;20409;-81
2022/08/08 04:55:22;;;;;;;2.87;2.67;;;;;;;;;;5054260;28;20416;-81
2022/08/08 04:57:49;;;;;;;3.10;2.85;;;;;;;;;;5053869;28;20409;-81
2022/08/08 05:00:15;;;;;;;2.78;2.58;;;;;;;;;;5054199;28;20380;-81
2022/08/08 05:02:41;;;;;;;3.25;2.85;;;;;;;;;;5053929;28;20377;-81
2022/08/08 05:05:07;;;;;;;3.05;2.75;;;;;;;;;;5053506;28;20387;-81
2022/08/08 05:07:34;;;;;;;3.55;2.80;;;;;;;;;;5035999;28;20506;-81
2022/08/08 05:10:00;;;;;;;2.58;2.35;;;;;;;;;;5053771;28;20382;-81
2022/08/08 05:12:26;;;;;;;2.75;2.55;;;;;;;;;;5053782;28;20378;-81
2022/08/08 05:14:52;;;;;;;2.80;2.60;;;;;;;;;;5053619;28;20412;-81
2022/08/08 05:17:18;;;;;;;3.00;2.80;;;;;;;;;;5053511;28;20427;-81
2022/08/08 05:19:44;;;;;;;2.90;2.70;;;;;;;;;;5050770;28;20409;-81
2022/08/08 05:22:10;;;;;;;2.95;2.65;;;;;;;;;;5053554;28;20382;-81
2022/08/08 05:24:36;;;;;;;3.07;2.87;;;;;;;;;;5053544;28;20420;-81
2022/08/08 05:27:03;;;;;;;3.15;2.85;;;;;;;;;;5053214;28;20404;-81
2022/08/08 05:29:29;;;;;;;3.58;3.13;;;;;;;;;;5053398;28;20385;-81
2022/08/08 05:31:55;;;;;;;3.75;2.88;;;;;;;;;;5053374;28;20543;-81
2022/08/08 05:34:25;;;;;;;3.20;2.90;;;;;;;;;;5053741;28;20441;-81
2022/08/08 05:36:53;;;;;;;3.40;3.08;;;;;;;;;;5053076;28;20388;-81
2022/08/08 05:39:20;;;;;;;3.15;2.95;;;;;;;;;;5052358;28;20427;-81
2022/08/08 05:41:49;;;;;;;2.93;2.73;;;;;;;;;;5045424;28;20373;-81
2022/08/08 05:44:16;;;;;;;3.15;2.85;;;;;;;;;;5016635;28;20402;-81
2022/08/08 05:46:42;;;;;;;2.95;2.75;;;;;;;;;;5053030;28;20385;-81
2022/08/08 05:49:08;;;;;;;3.50;3.10;;;;;;;;;;5052671;28;20389;-81
2022/08/08 05:51:34;;;;;;;3.50;3.00;;;;;;;;;;5051148;28;20874;-81
2022/08/08 05:54:00;;;;;;;3.33;3.03;;;;;;;;;;5051847;28;20876;-80
2022/08/08 05:56:27;;;;;;;3.60;3.20;;;;;;;;;;5052268;28;20471;-81
2022/08/08 05:59:16;;;;;;;3.20;3.00;;;;;;;;;;5052911;28;20381;-81
2022/08/08 06:01:42;;;;;;;3.33;3.03;;;;;;;;;;5044041;28;20755;-81
2022/08/08 06:04:10;;;;;;;3.40;3.10;;;;;;;;;;5052780;28;20734;-81
2022/08/08 06:06:39;;;;;;;2.92;2.72;;;;;;;;;;5052551;28;20468;-81
2022/08/08 06:09:05;;;;;;;2.88;2.67;;;;;;;;;;5052821;28;20387;-82
2022/08/08 06:11:31;;;;;;;3.35;2.85;;;;;;;;;;5052591;28;20468;-81
2022/08/08 06:13:58;;;;;;;3.25;3.05;;;;;;;;;;5052736;28;20476;-81
2022/08/08 06:16:24;;;;;;;2.70;2.50;;;;;;;;;;5052443;28;20444;-81
2022/08/08 06:18:51;;;;;;;3.20;2.83;;;;;;;;;;5034482;28;20871;-81
2022/08/08 06:21:17;;;;;;;3.08;2.85;;;;;;;;;;5052105;28;20390;-82
2022/08/08 06:23:43;;;;;;;2.75;2.55;;;;;;;;;;5051700;28;20389;-82
2022/08/08 06:26:12;;;;;;;3.00;2.80;;;;;;;;;;5052314;28;20397;-81
2022/08/08 06:28:41;;;;;;;3.10;2.83;;;;;;;;;;5050983;28;20397;-81
2022/08/08 06:31:09;;;;;;;4.47;2.65;;;;;;;;;;5050567;28;20455;-82
2022/08/08 06:33:36;;;;;;;2.92;2.55;;;;;;;;;;5051977;28;20886;-82
2022/08/08 06:36:03;;;;;;;2.72;2.53;;;;;;;;;;5052406;28;20739;-83
2022/08/08 06:38:33;;;;;;;2.53;2.33;;;;;;;;;;5052204;28;20454;-83
2022/08/08 06:41:11;;;;;;;3.40;2.67;;;;;;;;;;5051581;28;20377;-83
2022/08/08 06:43:39;;;;;;;2.50;2.30;;;;;;;;;;5052240;28;20708;-82
2022/08/08 06:46:05;;;;;;;2.50;2.30;;;;;;;;;;5034412;28;20926;-82
2022/08/08 06:48:32;;;;;;;2.33;2.13;;;;;;;;;;5052846;28;20453;-83
2022/08/08 06:50:58;;;;;;;2.60;2.20;;;;;;;;;;5052206;28;20393;-83
2022/08/08 06:53:26;;;;;;;2.13;2.03;;;;;;;;;;5052413;28;20409;-84
2022/08/08 06:55:53;;;;;;;2.30;2.10;;;;;;;;;;5052178;28;20385;-82
2022/08/08 06:58:19;;;;;;;2.50;2.20;;;;;;;;;;5052014;28;20468;-82
2022/08/08 07:00:48;;;;;;;3.35;2.40;;;;;;;;;;5052091;28;20897;-82
2022/08/08 07:03:18;;;;;;;2.75;2.15;;;;;;;;;;5034270;28;20397;-82
2022/08/08 07:05:45;;;;;;;2.63;2.05;;;;;;;;;;5052124;28;20385;-83
2022/08/08 07:08:16;;;;;;;2.75;2.33;;;;;;;;;;5051875;28;20381;-83
2022/08/08 07:10:45;;;;;;;2.72;2.40;;;;;;;;;;5051585;28;20388;-83
2022/08/08 07:13:16;;;;;;;2.35;1.95;;;;;;;;;;5052387;28;20500;-83
2022/08/08 07:15:42;;;;;;;2.50;2.30;;;;;;;;;;5056277;28;20468;-83
2022/08/08 07:18:09;;;;;;;2.00;1.90;;;;;;;;;;5055975;28;20377;-83
2022/08/08 07:20:36;;;;;;;2.38;2.17;;;;;;;;;;5056024;28;20389;-84
2022/08/08 07:23:23;;;;;;;1.85;1.73;;;;;;;;;;5055949;28;20377;-83
2022/08/08 07:25:50;;;;;;;2.22;2.00;;;;;;;;;;5037851;28;20382;-83
2022/08/08 07:28:22;;;;;;;2.00;1.80;;;;;;;;;;5055626;28;20416;-84
2022/08/08 07:30:48;;;;;;;1.60;1.50;;;;;;;;;;5042150;28;20388;-83
2022/08/08 07:33:15;;;;;;;3.30;1.80;;;;;;;;;;5055884;28;20914;-83
2022/08/08 07:35:43;;;;;;;1.80;1.70;;;;;;;;;;5055674;28;20373;-82
2022/08/08 07:38:10;;;;;;;2.10;1.90;;;;;;;;;;5055797;28;20413;-83
2022/08/08 07:40:36;;;;;;;2.40;1.70;;;;;;;;;;5055737;28;20746;-83
2022/08/08 07:43:03;;;;;;;2.20;1.50;;;;;;;;;;5055521;28;20389;-83
2022/08/08 07:45:29;;;;;;;2.95;1.60;;;;;;;;;;5055583;28;20382;-80
2022/08/08 07:47:57;;;;;;;1.67;1.40;;;;;;;;;;5055042;28;20470;-80
2022/08/08 07:50:24;;;;;;;2.00;1.63;;;;;;;;;;5055185;28;20391;-84
2022/08/08 07:52:50;;;;;;;2.30;1.70;;;;;;;;;;5055216;28;20373;-84
2022/08/08 07:55:21;;;;;;;2.08;1.60;;;;;;;;;;5055480;28;20385;-83
2022/08/08 07:57:52;;;;;;;1.55;1.45;;;;;;;;;;5055216;28;20382;-82
2022/08/08 08:00:18;;;;;;;2.85;1.67;;;;;;;;;;5055607;28;20465;-83
2022/08/08 08:03:03;;;;;;;1.70;1.60;;;;;;;;;;5055269;28;20465;-83
2022/08/08 08:05:29;;;;;;;1.50;1.40;;;;;;;;;;5055274;28;20455;-83
2022/08/08 08:08:00;;;;;;;2.38;1.40;;;;;;;;;;5055013;28;20386;-83
2022/08/08 08:10:27;;;;;;;1.58;1.40;;;;;;;;;;5055178;28;20850;-83
2022/08/08 08:12:55;;;;;;;2.00;1.60;;;;;;;;;;5054981;28;20439;-83
2022/08/08 08:15:25;;;;;;;1.95;1.52;;;;;;;;;;5037424;28;20389;-82
2022/08/08 08:17:54;;;;;;;2.10;1.50;;;;;;;;;;5054897;28;20464;-81
2022/08/08 08:20:21;;;;;;;1.50;1.37;;;;;;;;;;5037415;28;20516;-83
2022/08/08 08:22:47;;;;;;;2.33;1.80;;;;;;;;;;5054877;28;20386;-83
2022/08/08 08:25:13;;;;;;;1.77;1.50;;;;;;;;;;5054340;28;20921;-84
2022/08/08 08:27:39;;;;;;;2.25;1.50;;;;;;;;;;5054735;28;20416;-83
2022/08/08 08:30:05;;;;;;;1.40;1.30;;;;;;;;;;5054736;28;20875;-83
2022/08/08 08:32:32;;;;;;;1.65;1.25;;;;;;;;;;5055183;28;20385;-81
2022/08/08 08:34:59;;;;;;;1.40;1.30;;;;;;;;;;5054753;28;20408;-83
2022/08/08 08:37:25;;;;;;;1.30;1.20;;;;;;;;;;5054459;28;20460;-83
2022/08/08 08:39:51;;;;;;;1.95;1.60;;;;;;;;;;5054838;28;20427;-83
2022/08/08 08:42:18;;;;;;;3.90;1.33;;;;;;;;;;5054445;28;20871;-84
2022/08/08 08:44:44;;;;;;;1.50;1.40;;;;;;;;;;5054538;28;20443;-83
2022/08/08 08:47:10;;;;;;;1.70;1.52;;;;;;;;;;5054352;28;20385;-85
2022/08/08 08:49:36;;;;;;;1.98;1.33;;;;;;;;;;5054694;28;20385;-85
2022/08/08 08:52:03;;;;;;;1.50;1.40;;;;;;;;;;5054312;28;20377;-83
2022/08/08 08:54:32;;;;;;;1.30;1.20;;;;;;;;;;5054392;28;20401;-84
2022/08/08 08:56:59;;;;;;;2.10;1.13;;;;;;;;;;5054406;28;20450;-84
2022/08/08 08:59:26;;;;;;;1.38;1.27;;;;;;;;;;5049152;28;20393;-83
2022/08/08 09:01:53;;;;;;;1.48;1.30;;;;;;;;;;5048633;28;20380;-83
2022/08/08 09:04:23;;;;;;;1.40;1.30;;;;;;;;;;5051137;28;20398;-83
2022/08/08 09:06:52;;;;;;;2.78;1.35;;;;;;;;;;5050099;28;20397;-84
2022/08/08 09:09:23;;;;;;;1.70;1.30;;;;;;;;;;5052726;28;20381;-84
2022/08/08 09:11:51;;;;;;;1.95;1.38;;;;;;;;;;5052743;28;20377;-84
2022/08/08 09:14:19;;;;;;;2.10;1.20;;;;;;;;;;5050763;28;20424;-84
2022/08/08 09:16:46;;;;;;;2.05;1.40;;;;;;;;;;5019793;28;20398;-84
2022/08/08 09:19:12;;;;;;;1.20;1.10;;;;;;;;;;5051332;28;20382;-85
2022/08/08 09:21:38;;;;;;;2.15;1.40;;;;;;;;;;5037138;28;20502;-85
2022/08/08 09:24:05;;;;;;;1.20;1.10;;;;;;;;;;5052525;28;20444;-84
2022/08/08 09:26:46;;;;;;;1.40;1.27;;;;;;;;;;5052338;28;20401;-87
2022/08/08 09:29:22;;;;;;;1.50;1.40;;;;;;;;;;5050749;28;20551;-84
2022/08/08 09:31:56;;;;;;;1.25;1.13;;;;;;;;;;5052452;28;20851;-86
2022/08/08 09:34:24;;;;;;;2.42;1.27;;;;;;;;;;5050346;28;20409;-85
2022/08/08 09:36:51;;;;;;;1.50;1.30;;;;;;;;;;5052254;28;20778;-83
2022/08/08 09:39:20;;;;;;;1.50;1.10;;;;;;;;;;5053406;28;20435;-84
2022/08/08 09:42:00;;;;;;;1.40;1.30;;;;;;;;;;5052944;28;20435;-83
2022/08/08 09:44:26;;;;;;;1.25;1.10;;;;;;;;;;5051340;28;20747;-84
2022/08/08 09:46:52;;;;;;;1.50;1.37;;;;;;;;;;5040189;28;20391;-85
2022/08/08 09:49:19;;;;;;;1.77;1.30;;;;;;;;;;5015764;28;21186;-83
2022/08/08 09:51:51;;;;;;;2.53;1.20;;;;;;;;;;5040987;28;20428;-83
2022/08/08 09:54:18;;;;;;;1.67;1.30;;;;;;;;;;5051715;28;20515;-85
2022/08/08 09:56:47;;;;;;;1.67;1.20;;;;;;;;;;5052096;28;20459;-83
2022/08/08 09:59:21;;;;;;;1.52;1.20;;;;;;;;;;5053072;28;20380;-84
2022/08/08 10:01:48;;;;;;;2.28;1.30;;;;;;;;;;5052994;28;20405;-84
2022/08/08 10:04:15;;;;;;;1.50;1.10;;;;;;;;;;5052892;28;20395;-83
2022/08/08 10:06:46;;;;;;;1.90;1.13;;;;;;;;;;5052808;28;20465;-84
2022/08/08 10:09:12;;;;;;;1.60;1.10;;;;;;;;;;5052665;28;20377;-81
2022/08/08 10:11:39;;;;;;;1.30;1.10;;;;;;;;;;5051488;28;20377;-82
2022/08/08 10:14:06;;;;;;;1.48;1.10;;;;;;;;;;5051587;28;20452;-82
2022/08/08 10:16:39;;;;;;;2.08;1.20;;;;;;;;;;5051883;28;20384;-83
2022/08/08 10:19:06;;;;;;;1.47;1.10;;;;;;;;;;5051488;28;20781;-82
2022/08/08 10:21:34;;;;;;;1.80;1.15;;;;;;;;;;5048605;28;20401;-82
2022/08/08 10:24:04;;;;;;;2.30;1.33;;;;;;;;;;5052020;28;20845;-82
2022/08/08 10:26:31;;;;;;;2.00;1.13;;;;;;;;;;5051563;28;20545;-84
2022/08/08 10:29:00;;;;;;;1.20;1.10;;;;;;;;;;5052289;28;20472;-84
2022/08/08 10:34:17;;;;;;;1.92;1.13;;;;;;;;;;5052476;28;20831;-83
2022/08/08 10:36:43;;;;;;;2.20;1.20;;;;;;;;;;5052116;28;20380;-83
2022/08/08 10:39:10;;;;;;;1.50;1.00;;;;;;;;;;5049460;28;20420;-83
2022/08/08 10:41:36;;;;;;;2.38;1.30;;;;;;;;;;5051121;28;20374;-83
2022/08/08 10:44:03;;;;;;;2.72;1.20;;;;;;;;;;5052217;28;20393;-83
2022/08/08 10:46:30;;;;;;;1.20;1.08;;;;;;;;;;5051988;28;20902;-82
2022/08/08 10:48:57;;;;;;;1.20;1.10;;;;;;;;;;5052290;28;20793;-82
2022/08/08 10:51:30;;;;;;;1.58;0.93;;;;;;;;;;5050431;28;20397;-82
2022/08/08 10:53:56;;;;;;;1.30;1.05;;;;;;;;;;5052163;28;20401;-81
2022/08/08 10:56:22;;;;;;;2.30;1.08;;;;;;;;;;5052047;28;20755;-83
2022/08/08 10:58:58;;;;;;;1.73;1.10;;;;;;;;;;5052131;28;20381;-83
2022/08/08 11:01:27;;;;;;;1.30;1.20;;;;;;;;;;5050803;28;20468;-81
2022/08/08 11:03:56;;;;;;;1.95;1.10;;;;;;;;;;5052115;28;20959;-84
2022/08/08 11:06:22;;;;;;;0.90;0.90;;;;;;;;;;5052107;28;20421;-84
2022/08/08 11:08:59;;;;;;;2.53;1.10;;;;;;;;;;5052015;28;20766;-82
2022/08/08 11:11:25;;;;;;;1.52;1.00;;;;;;;;;;5051408;28;20393;-83
2022/08/08 11:13:51;;;;;;;1.30;1.20;;;;;;;;;;5051101;28;20495;-82
2022/08/08 11:16:21;;;;;;;1.08;0.98;;;;;;;;;;5049429;28;20443;-81
2022/08/08 11:18:49;;;;;;;1.60;0.85;;;;;;;;;;5049495;28;20362;-81
2022/08/08 11:21:15;;;;;;;1.00;0.90;;;;;;;;;;5051084;28;20385;-81
2022/08/08 11:23:42;;;;;;;1.35;1.00;;;;;;;;;;5051847;28;20877;-82
2022/08/08 11:26:10;;;;;;;2.33;1.08;;;;;;;;;;5052000;28;20454;-81
2022/08/08 11:28:36;;;;;;;1.33;1.10;;;;;;;;;;5033787;28;20393;-82
2022/08/08 11:31:04;;;;;;;1.70;1.10;;;;;;;;;;5033113;28;20390;-80
2022/08/08 11:33:31;;;;;;;2.63;1.20;;;;;;;;;;5050647;28;20435;-84
2022/08/08 11:35:57;;;;;;;1.55;1.15;;;;;;;;;;5051878;28;20373;-82
2022/08/08 11:38:26;;;;;;;1.83;1.20;;;;;;;;;;5051640;28;20924;-80
2022/08/08 11:40:53;;;;;;;1.65;1.50;;;;;;;;;;5051712;28;20479;-84
2022/08/08 11:43:19;;;;;;;2.17;0.90;;;;;;;;;;5051537;28;20459;-84
2022/08/08 11:45:46;;;;;;;1.10;1.00;;;;;;;;;;5048925;28;20914;-83
2022/08/08 11:48:13;;;;;;;1.30;1.20;;;;;;;;;;5050696;28;20385;-83
2022/08/08 11:50:39;;;;;;;1.40;1.00;;;;;;;;;;5051404;28;20885;-83
2022/08/08 11:53:06;;;;;;;1.58;1.10;;;;;;;;;;5050618;28;20393;-81
2022/08/08 11:55:34;;;;;;;2.20;1.10;;;;;;;;;;5032635;28;20418;-82
2022/08/08 11:58:07;;;;;;;1.27;1.05;;;;;;;;;;5031789;28;20392;-84
2022/08/08 12:00:33;;;;;;;0.98;0.90;;;;;;;;;;5054008;28;20373;-85
2022/08/08 12:03:00;;;;;;;1.73;1.00;;;;;;;;;;5055102;28;20381;-83
2022/08/08 12:05:37;;;;;;;0.90;0.90;;;;;;;;;;5055580;28;20416;-83
2022/08/08 12:08:03;;;;;;;1.73;1.08;;;;;;;;;;5054106;28;20468;-84
2022/08/08 12:10:30;;;;;;;1.80;1.00;;;;;;;;;;5054963;28;20396;-82
2022/08/08 12:13:06;;;;;;;1.30;0.95;;;;;;;;;;5054977;28;20377;-81
2022/08/08 12:15:34;;;;;;;1.00;0.90;;;;;;;;;;5055025;28;20369;-82
2022/08/08 12:18:00;;;;;;;1.20;1.10;;;;;;;;;;5054957;28;20377;-82
2022/08/08 12:20:37;;;;;;;1.10;1.00;;;;;;;;;;5054798;28;20381;-83
2022/08/08 12:23:03;;;;;;;1.70;0.90;;;;;;;;;;5054981;28;20374;-82
2022/08/08 12:25:32;;;;;;;0.82;0.75;;;;;;;;;;5054813;28;20414;-82
2022/08/08 12:28:12;;;;;;;1.60;0.90;;;;;;;;;;5054517;28;20819;-82
2022/08/08 12:30:39;;;;;;;1.27;0.80;;;;;;;;;;5054675;28;20439;-82
2022/08/08 12:33:15;;;;;;;1.03;1.00;;;;;;;;;;5054952;28;20416;-82
2022/08/08 12:35:42;;;;;;;0.80;0.80;;;;;;;;;;5037013;28;20409;-82
2022/08/08 12:38:08;;;;;;;1.73;1.00;;;;;;;;;;5054473;28;20377;-82
2022/08/08 12:40:38;;;;;;;1.00;0.90;;;;;;;;;;5054497;28;20376;-81
2022/08/08 12:43:05;;;;;;;1.13;0.80;;;;;;;;;;5054331;28;20523;-82
2022/08/08 12:45:49;;;;;;;1.75;1.00;;;;;;;;;;5054557;28;20415;-83
2022/08/08 12:48:19;;;;;;;1.20;0.90;;;;;;;;;;5054476;28;20385;-82
2022/08/08 12:50:49;;;;;;;1.15;1.05;;;;;;;;;;5054357;28;20382;-83
2022/08/08 12:53:19;;;;;;;1.58;0.90;;;;;;;;;;5051982;28;20405;-82
2022/08/08 12:56:11;;;;;;;1.52;0.80;;;;;;;;;;5038326;28;20390;-82
2022/08/08 12:58:44;;;;;;;3.42;1.00;;;;;;;;;;5031720;28;20395;-82
2022/08/08 13:01:10;;;;;;;1.20;1.10;;;;;;;;;;5034851;28;20387;-82
2022/08/08 13:03:43;;;;;;;0.80;0.80;;;;;;;;;;5054137;28;20466;-82
2022/08/08 13:06:12;;;;;;;1.20;1.00;;;;;;;;;;5048674;28;20377;-82
2022/08/08 13:08:46;;;;;;;2.72;0.93;;;;;;;;;;5053582;28;20405;-81
2022/08/08 13:11:26;;;;;;;1.60;1.00;;;;;;;;;;5052968;28;20443;-81
2022/08/08 13:14:03;;;;;;;1.10;0.90;;;;;;;;;;5053792;28;20409;-81
2022/08/08 13:16:33;;;;;;;1.67;0.90;;;;;;;;;;5053921;28;20384;-82
2022/08/08 13:19:01;;;;;;;2.00;0.90;;;;;;;;;;5054493;28;20877;-81
2022/08/08 13:21:27;;;;;;;0.80;0.80;;;;;;;;;;5053824;28;20469;-82
2022/08/08 13:23:53;;;;;;;1.30;1.00;;;;;;;;;;5053562;28;20936;-82
2022/08/08 13:26:19;;;;;;;1.77;0.80;;;;;;;;;;5053392;28;20385;-81
2022/08/08 13:28:45;;;;;;;1.50;0.70;;;;;;;;;;5053029;28;20954;-82
2022/08/08 13:31:12;;;;;;;1.63;0.80;;;;;;;;;;5053130;28;20394;-82
2022/08/08 13:33:39;;;;;;;1.80;0.85;;;;;;;;;;5053368;28;20412;-81
2022/08/08 13:36:06;;;;;;;1.38;0.80;;;;;;;;;;5052990;28;20489;-82
2022/08/08 13:38:32;;;;;;;1.40;0.88;;;;;;;;;;5048816;28;20476;-82
2022/08/08 13:40:59;;;;;;;2.20;0.70;;;;;;;;;;5051204;28;20398;-83
2022/08/08 13:43:25;;;;;;;1.02;0.80;;;;;;;;;;5049387;28;20455;-82
2022/08/08 13:45:51;;;;;;;1.45;0.80;;;;;;;;;;5053218;28;20385;-82
2022/08/08 13:48:18;;;;;;;1.88;0.90;;;;;;;;;;5051173;28;20400;-81
2022/08/08 13:50:48;;;;;;;1.55;0.98;;;;;;;;;;5052004;28;20462;-82
2022/08/08 13:53:24;;;;;;;1.00;0.90;;;;;;;;;;5052433;28;20388;-82
2022/08/08 13:56:00;;;;;;;1.08;0.70;;;;;;;;;;5051990;28;20735;-82
2022/08/08 13:58:27;;;;;;;1.98;0.90;;;;;;;;;;5050934;28;20381;-82
2022/08/08 14:00:53;;;;;;;1.20;0.70;;;;;;;;;;5052717;28;20431;-82
2022/08/08 14:03:26;;;;;;;1.10;0.90;;;;;;;;;;5052483;28;20439;-82
2022/08/08 14:05:52;;;;;;;1.00;0.75;;;;;;;;;;5050878;28;20420;-82
2022/08/08 14:08:18;;;;;;;1.67;0.70;;;;;;;;;;5049859;28;20893;-82
2022/08/08 14:10:44;;;;;;;1.10;0.77;;;;;;;;;;5052789;28;20393;-82
2022/08/08 14:13:15;;;;;;;0.80;0.80;;;;;;;;;;5052556;28;20377;-85
2022/08/08 14:15:41;;;;;;;1.63;0.70;;;;;;;;;;5034711;28;20783;-82
2022/08/08 14:18:08;;;;;;;1.57;0.77;;;;;;;;;;5047754;28;20794;-82
2022/08/08 14:20:38;;;;;;;1.40;0.80;;;;;;;;;;5051058;28;20379;-84
2022/08/08 14:23:10;;;;;;;2.60;0.80;;;;;;;;;;5051346;28;20914;-82
2022/08/08 14:25:46;;;;;;;2.20;0.90;;;;;;;;;;5052464;28;20388;-82
2022/08/08 14:28:12;;;;;;;1.00;0.80;;;;;;;;;;5051893;28;20385;-83
2022/08/08 14:30:38;;;;;;;1.33;0.88;;;;;;;;;;5048325;28;20385;-82
2022/08/08 14:33:04;;;;;;;0.98;0.70;;;;;;;;;;5050932;28;20385;-82
2022/08/08 14:35:30;;;;;;;2.53;1.00;;;;;;;;;;5050654;28;20774;-83
2022/08/08 14:38:00;;;;;;;1.88;0.80;;;;;;;;;;5050854;28;20436;-83
2022/08/08 14:40:27;;;;;;;2.03;0.75;;;;;;;;;;5050569;28;20382;-82
2022/08/08 14:42:54;;;;;;;1.43;0.77;;;;;;;;;;5052167;28;20382;-83
2022/08/08 14:45:21;;;;;;;1.42;0.73;;;;;;;;;;5050589;28;20443;-83
2022/08/08 14:47:48;;;;;;;2.50;0.70;;;;;;;;;;5050480;28;20462;-83
2022/08/08 14:50:15;;;;;;;1.10;0.70;;;;;;;;;;5050226;28;20420;-83
2022/08/08 14:53:04;;;;;;;0.68;0.68;;;;;;;;;;5050648;28;20468;-83
2022/08/08 14:55:32;;;;;;;1.20;0.70;;;;;;;;;;5049899;28;20587;-82
2022/08/08 14:57:58;;;;;;;0.98;0.80;;;;;;;;;;5050461;28;20377;-82
2022/08/08 15:00:25;;;;;;;1.52;0.70;;;;;;;;;;5050097;28;20889;-82
2022/08/08 15:02:52;;;;;;;3.97;1.85;;;;;;;;;;5048261;28;20374;-83
2022/08/08 15:05:19;;;;;;;0.85;0.70;;;;;;;;;;5050308;28;20394;-82
2022/08/08 15:07:46;;;;;;;1.33;0.90;;;;;;;;;;5050389;28;20423;-82
2022/08/08 15:10:12;;;;;;;1.92;1.00;;;;;;;;;;5048142;28;20402;-82